createdAt,value
2023-03-16T00:02:28.461Z,99.51
2023-03-16T00:07:29.672Z,99.30
2023-03-16T00:12:34.107Z,99.89
2023-03-16T00:17:34.934Z,100.00
2023-03-16T00:22:35.782Z,100.00
2023-03-16T00:27:37.006Z,100.00
2023-03-16T00:32:38.436Z,100.00
2023-03-16T00:37:39.675Z,98.79
2023-03-16T00:42:41.101Z,99.04
2023-03-16T00:47:41.872Z,100.00
2023-03-16T00:52:43.007Z,100.00
2023-03-16T00:57:44.169Z,100.00
2023-03-16T01:02:45.457Z,100.00
2023-03-16T01:07:46.248Z,100.00
2023-03-16T01:12:47.221Z,100.00
2023-03-16T01:17:48.340Z,100.00
2023-03-16T01:22:49.194Z,100.00
2023-03-16T01:27:51.372Z,100.00
2023-03-16T01:32:53.036Z,100.00
2023-03-16T01:37:53.927Z,100.00
2023-03-16T01:43:02.124Z,100.00
2023-03-16T01:48:07.158Z,100.00
2023-03-16T01:53:09.144Z,100.00
2023-03-16T01:58:10.812Z,100.00
2023-03-16T02:03:15.814Z,100.00
2023-03-16T02:09:02.112Z,100.00
2023-03-16T02:14:08.689Z,100.00
2023-03-16T02:19:24.972Z,100.00
2023-03-16T02:24:26.020Z,100.00
2023-03-16T02:30:07.027Z,100.00
2023-03-16T02:35:14.771Z,100.00
2023-03-16T02:40:23.471Z,100.00
2023-03-16T02:45:28.416Z,100.00
2023-03-16T02:50:30.182Z,100.00
2023-03-16T02:55:31.069Z,100.00
2023-03-16T03:00:31.955Z,100.00
2023-03-16T03:05:33.044Z,100.00
2023-03-16T03:10:34.120Z,100.00
2023-03-16T03:15:35.052Z,100.00
2023-03-16T03:20:40.539Z,100.00
2023-03-16T03:25:41.594Z,100.00
2023-03-16T03:30:42.498Z,100.00
2023-03-16T03:35:44.341Z,100.00
2023-03-16T03:40:47.647Z,100.00
2023-03-16T03:45:48.589Z,100.00
2023-03-16T03:50:50.406Z,100.00
2023-03-16T03:56:09.448Z,100.00
2023-03-16T04:01:11.423Z,100.00
2023-03-16T04:06:12.405Z,100.00
2023-03-16T04:11:13.322Z,100.00
2023-03-16T04:16:15.436Z,100.00
2023-03-16T04:21:17.745Z,100.00
2023-03-16T04:26:21.093Z,100.00
2023-03-16T04:31:22.758Z,100.00
2023-03-16T04:36:24.426Z,100.00
2023-03-16T04:41:25.690Z,100.00
2023-03-16T04:46:35.147Z,100.00
2023-03-16T04:51:40.029Z,100.00
2023-03-16T04:56:47.442Z,100.00
2023-03-16T05:02:01.055Z,100.00
2023-03-16T05:07:02.432Z,100.00
2023-03-16T05:12:07.656Z,100.00
2023-03-16T05:17:09.393Z,100.00
2023-03-16T05:22:10.817Z,100.00
2023-03-16T05:27:12.193Z,100.00
2023-03-16T05:32:13.143Z,100.00
2023-03-16T05:37:15.075Z,100.00
2023-03-16T05:42:15.937Z,100.00
2023-03-16T05:47:23.693Z,100.00
2023-03-16T05:52:28.524Z,100.00
2023-03-16T05:57:29.875Z,100.00
2023-03-16T06:02:32.917Z,100.00
2023-03-16T06:07:34.901Z,100.00
2023-03-16T06:12:35.820Z,100.00
2023-03-16T06:17:38.786Z,100.00
2023-03-16T06:22:42.157Z,100.00
2023-03-16T06:27:43.076Z,100.00
2023-03-16T06:32:46.325Z,100.00
2023-03-16T06:37:48.045Z,100.00
2023-03-16T06:43:09.467Z,100.00
2023-03-16T06:48:10.456Z,100.00
2023-03-16T06:53:11.816Z,100.00
2023-03-16T06:58:13.691Z,100.00
2023-03-16T07:03:14.643Z,100.00
2023-03-16T07:08:20.332Z,100.00
2023-03-16T07:13:21.119Z,100.00
2023-03-16T07:18:25.140Z,100.00
2023-03-16T07:23:26.402Z,100.00
2023-03-16T07:28:31.482Z,100.00
2023-03-16T07:33:34.032Z,100.00
2023-03-16T07:38:37.570Z,100.00
2023-03-16T07:43:39.174Z,100.00
2023-03-16T07:48:44.319Z,100.00
2023-03-16T07:53:46.424Z,100.00
2023-03-16T07:58:51.422Z,100.00
2023-03-16T08:03:52.891Z,100.00
2023-03-16T08:08:54.392Z,100.00
2023-03-16T08:14:04.661Z,100.00
2023-03-16T08:19:22.223Z,100.00
2023-03-16T08:24:23.442Z,100.00
2023-03-16T08:29:26.032Z,100.00
2023-03-16T08:34:28.086Z,100.00
2023-03-16T08:39:29.656Z,100.00
2023-03-16T08:44:32.235Z,100.00
2023-03-16T08:49:34.066Z,100.00
2023-03-16T08:54:59.705Z,100.00
2023-03-16T09:00:11.834Z,100.00
2023-03-16T09:05:20.964Z,100.00
2023-03-16T09:10:22.766Z,100.00
2023-03-16T09:15:23.574Z,100.00
2023-03-16T09:20:29.731Z,100.00
2023-03-16T09:25:32.018Z,100.00
2023-03-16T09:30:33.959Z,100.00
2023-03-16T09:35:36.427Z,100.00
2023-03-16T09:40:37.661Z,100.00
2023-03-16T09:47:08.268Z,100.00
2023-03-16T09:52:37.590Z,100.00
2023-03-16T09:58:19.051Z,100.00
2023-03-16T10:04:16.355Z,100.00
2023-03-16T10:15:34.945Z,100.00
2023-03-16T10:20:35.782Z,100.00
2023-03-16T10:25:50.788Z,100.00
2023-03-16T10:30:54.476Z,100.00
2023-03-16T10:36:43.491Z,100.00
2023-03-16T10:41:54.195Z,100.00
2023-03-16T10:47:07.537Z,100.00
2023-03-16T10:52:13.869Z,100.00
2023-03-16T10:57:33.265Z,100.00
2023-03-16T11:02:34.629Z,100.00
2023-03-16T11:07:36.441Z,100.00
2023-03-16T11:12:37.513Z,100.00
2023-03-16T11:17:45.292Z,100.00
2023-03-16T11:22:47.967Z,96.42
2023-03-16T11:27:56.958Z,98.45
2023-03-16T11:32:59.739Z,100.00
2023-03-16T11:38:16.805Z,96.56
2023-03-16T11:43:44.394Z,99.24
2023-03-16T11:51:03.125Z,99.29
2023-03-16T11:56:53.994Z,98.99
2023-03-16T12:03:57.886Z,98.86
2023-03-16T12:09:51.983Z,92.86
2023-03-16T12:15:47.316Z,90.83
2023-03-16T12:21:39.962Z,89.73
2023-03-16T12:26:42.684Z,88.00
2023-03-16T12:34:59.235Z,91.99
2023-03-16T12:40:35.698Z,91.63
2023-03-16T12:45:48.409Z,85.88
2023-03-16T12:50:54.043Z,84.64
2023-03-16T12:55:56.581Z,86.83
2023-03-16T13:00:59.381Z,83.54
2023-03-16T13:06:02.687Z,82.57
2023-03-16T13:11:09.176Z,78.93
2023-03-16T13:16:27.607Z,79.69
2023-03-16T13:21:40.842Z,78.78
2023-03-16T13:27:01.986Z,79.63
2023-03-16T13:32:08.058Z,79.07
2023-03-16T13:37:14.213Z,76.39
2023-03-16T13:42:19.545Z,76.61
2023-03-16T13:47:20.636Z,70.04
2023-03-16T13:52:30.180Z,72.54
2023-03-16T13:57:41.297Z,70.24
2023-03-16T14:02:43.433Z,70.37
2023-03-16T14:07:47.987Z,71.44
2023-03-16T14:13:07.574Z,71.07
2023-03-16T14:18:20.618Z,74.30
2023-03-16T14:23:33.339Z,71.14
2023-03-16T14:28:34.106Z,71.73
2023-03-16T14:33:39.195Z,72.44
2023-03-16T14:38:42.890Z,70.99
2023-03-16T14:43:54.744Z,72.20
2023-03-16T14:49:07.022Z,70.38
2023-03-16T14:54:12.666Z,68.50
2023-03-16T14:59:13.610Z,71.39
2023-03-16T15:04:18.561Z,68.69
2023-03-16T15:09:38.162Z,69.62
2023-03-16T15:14:57.751Z,66.36
2023-03-16T15:19:59.006Z,66.89
2023-03-16T15:25:28.156Z,66.37
2023-03-16T15:30:29.921Z,65.47
2023-03-16T15:35:31.438Z,68.08
2023-03-16T15:40:34.626Z,65.51
2023-03-16T15:45:35.817Z,67.10
2023-03-16T15:50:40.159Z,68.56
2023-03-16T15:55:44.206Z,68.99
2023-03-16T16:00:46.200Z,70.28
2023-03-16T16:05:47.876Z,73.89
2023-03-16T16:10:49.894Z,73.10
2023-03-16T16:15:51.456Z,73.53
2023-03-16T16:20:53.199Z,73.38
2023-03-16T16:25:57.773Z,74.53
2023-03-16T16:31:00.967Z,74.26
2023-03-16T16:36:03.666Z,75.60
2023-03-16T16:41:08.532Z,75.87
2023-03-16T16:46:15.826Z,75.20
2023-03-16T16:51:22.553Z,76.23
2023-03-16T16:56:32.384Z,76.54
2023-03-16T17:01:34.234Z,76.82
2023-03-16T17:06:35.030Z,76.33
2023-03-16T17:11:36.787Z,76.04
2023-03-16T17:16:38.944Z,75.43
2023-03-16T17:21:43.348Z,76.81
2023-03-16T17:26:48.574Z,77.02
2023-03-16T17:31:49.772Z,77.40
2023-03-16T17:36:51.685Z,77.67
2023-03-16T17:41:58.417Z,77.88
2023-03-16T17:46:59.494Z,78.63
2023-03-16T17:52:00.578Z,79.34
2023-03-16T17:57:01.565Z,79.80
2023-03-16T18:02:02.660Z,80.08
2023-03-16T18:07:04.426Z,80.15
2023-03-16T18:12:05.701Z,81.42
2023-03-16T18:17:32.933Z,82.73
2023-03-16T18:22:34.270Z,82.00
2023-03-16T18:27:35.281Z,82.19
2023-03-16T18:32:36.103Z,82.42
2023-03-16T18:37:37.699Z,83.03
2023-03-16T18:42:38.757Z,83.11
2023-03-16T18:47:43.084Z,83.33
2023-03-16T18:52:43.887Z,82.49
2023-03-16T18:57:51.100Z,81.96
2023-03-16T19:02:55.484Z,82.11
2023-03-16T19:07:56.373Z,81.79
2023-03-16T19:12:58.482Z,81.34
2023-03-16T19:18:00.045Z,81.19
2023-03-16T19:23:10.067Z,81.82
2023-03-16T19:28:15.414Z,81.02
2023-03-16T19:33:22.445Z,81.37
2023-03-16T19:38:24.378Z,82.41
2023-03-16T19:43:27.431Z,82.91
2023-03-16T19:48:32.151Z,82.99
2023-03-16T19:53:32.956Z,82.99
2023-03-16T19:58:41.882Z,83.09
2023-03-16T20:03:44.272Z,82.93
2023-03-16T20:08:46.286Z,83.15
2023-03-16T20:13:47.625Z,83.10
2023-03-16T20:18:54.069Z,83.12
2023-03-16T20:23:55.938Z,83.84
2023-03-16T20:28:58.538Z,85.00
2023-03-16T20:33:59.448Z,85.59
2023-03-16T20:39:00.332Z,85.62
2023-03-16T20:44:02.563Z,86.15
2023-03-16T20:49:05.257Z,86.66
2023-03-16T20:54:06.591Z,86.58
2023-03-16T20:59:22.803Z,86.10
2023-03-16T21:04:27.478Z,88.12
2023-03-16T21:09:31.127Z,88.13
2023-03-16T21:14:32.776Z,90.02
2023-03-16T21:19:34.183Z,89.92
2023-03-16T21:24:36.344Z,89.88
2023-03-16T21:29:37.351Z,89.99
2023-03-16T21:34:38.182Z,89.22
2023-03-16T21:39:39.235Z,94.68
2023-03-16T21:44:40.012Z,90.26
2023-03-16T21:49:40.808Z,91.27
2023-03-16T21:54:41.584Z,91.51
2023-03-16T21:59:42.514Z,92.47
2023-03-16T22:04:43.508Z,94.09
2023-03-16T22:09:45.280Z,94.60
2023-03-16T22:14:46.837Z,95.45
2023-03-16T22:19:47.655Z,95.71
2023-03-16T22:24:48.492Z,96.41
2023-03-16T22:29:50.593Z,96.21
2023-03-16T22:34:55.287Z,97.41
2023-03-16T22:39:57.976Z,96.29
2023-03-16T22:44:59.957Z,97.21
2023-03-16T22:50:01.187Z,97.96
2023-03-16T22:55:04.080Z,98.86
2023-03-16T23:00:06.480Z,98.25
2023-03-16T23:05:25.267Z,97.99
2023-03-16T23:10:29.662Z,98.93
2023-03-16T23:15:37.623Z,99.62
2023-03-16T23:20:38.436Z,100.00
2023-03-16T23:25:39.861Z,100.00
2023-03-16T23:30:41.007Z,100.00
2023-03-16T23:35:45.724Z,100.00
2023-03-16T23:40:46.502Z,100.00
2023-03-16T23:45:47.724Z,100.00
2023-03-16T23:50:51.414Z,100.00
2023-03-16T23:55:52.174Z,100.00
